Time;durP1;ratioP1;P1;durP2;ratioP2;P2;SDS_P1;SDS_P2;PMS_P1;PMS_P2;Temp;Humidity;BMP_temperature;BMP_pressure;BME280_temperature;BME280_humidity;BME280_pressure;Samples;Min_cycle;Max_cycle;Signal;HPM_P1;HPM_P2
2023/02/03 00:00:33;;;;;;;41.88;24.95;;;;;;;-0.53;85.53;147197.50;5041735;28;20057;-65
2023/02/03 00:02:59;;;;;;;44.65;27.02;;;;;;;-0.43;85.78;147222.97;5043680;28;20202;-65
2023/02/03 00:05:25;;;;;;;41.70;25.95;;;;;;;-0.58;85.70;147186.09;5043463;28;20080;-65
2023/02/03 00:07:50;;;;;;;42.50;26.80;;;;;;;-0.35;85.38;147242.00;5043497;28;20025;-66
2023/02/03 00:10:20;;;;;;;44.80;25.55;;;;;;;-0.36;85.51;147240.75;5043165;28;20030;-66
2023/02/03 00:12:48;;;;;;;42.30;26.85;;;;;;;-0.51;86.12;147202.63;5025478;28;20191;-66
2023/02/03 00:15:13;;;;;;;44.03;26.90;;;;;;;-0.50;86.04;147205.13;5043317;28;20029;-66
2023/02/03 00:17:39;;;;;;;44.40;26.45;;;;;;;-0.44;85.92;147219.09;5043060;28;20369;-65
2023/02/03 00:20:05;;;;;;;50.75;28.17;;;;;;;-0.43;85.95;147221.66;5042650;28;20059;-66
2023/02/03 00:22:31;;;;;;;43.70;26.08;;;;;;;-0.28;85.75;147258.53;5025207;28;20025;-66
2023/02/03 00:24:56;;;;;;;40.47;25.55;;;;;;;-0.47;86.17;147211.47;5042957;28;20029;-66
2023/02/03 00:27:22;;;;;;;44.38;26.42;;;;;;;-0.36;85.96;147239.44;5042909;28;20041;-66
2023/02/03 00:29:47;;;;;;;43.60;27.40;;;;;;;-0.24;85.73;147269.97;5042726;28;20025;-66
2023/02/03 00:32:13;;;;;;;44.92;26.20;;;;;;;-0.55;86.34;147192.44;5042776;28;20025;-66
2023/02/03 00:34:38;;;;;;;43.55;26.63;;;;;;;-0.38;86.51;147234.38;5042749;28;20029;-65
2023/02/03 00:37:04;;;;;;;42.90;26.25;;;;;;;-0.30;86.17;147253.44;5042975;28;20091;-65
2023/02/03 00:39:29;;;;;;;44.47;27.08;;;;;;;-0.25;86.04;147267.41;5025104;28;20033;-65
2023/02/03 00:41:55;;;;;;;43.80;24.95;;;;;;;-0.21;85.17;147276.34;5061542;28;20087;-64
2023/02/03 00:44:20;;;;;;;46.28;27.70;;;;;;;-0.27;85.79;147261.03;5048719;28;20309;-65
2023/02/03 00:46:46;;;;;;;44.80;26.42;;;;;;;-0.31;86.23;147252.19;5042493;28;20112;-66
2023/02/03 00:49:11;;;;;;;39.85;23.50;;;;;;;-0.33;86.49;147247.06;5042499;28;20029;-66
2023/02/03 00:51:37;;;;;;;41.67;26.40;;;;;;;-0.21;85.75;147276.34;5042336;28;20048;-66
2023/02/03 00:54:03;;;;;;;41.88;25.95;;;;;;;-0.28;85.65;147258.53;5042443;28;20175;-65
2023/02/03 00:56:28;;;;;;;46.75;26.65;;;;;;;-0.32;85.41;147249.63;5024683;28;20017;-65
2023/02/03 00:58:54;;;;;;;43.15;26.42;;;;;;;-0.33;86.12;147247.06;5042257;28;20358;-65
2023/02/03 01:01:19;;;;;;;42.30;25.85;;;;;;;-0.36;86.73;147240.75;5042278;28;20090;-66
2023/02/03 01:03:45;;;;;;;42.92;26.27;;;;;;;-0.33;86.61;147245.81;5041758;28;20040;-66
2023/02/03 01:06:17;;;;;;;44.85;24.45;;;;;;;-0.25;85.98;147267.41;5042471;28;20036;-66
2023/02/03 01:08:43;;;;;;;44.20;26.98;;;;;;;-0.21;85.51;147276.34;5042291;28;20033;-66
2023/02/03 01:11:30;;;;;;;44.25;26.88;;;;;;;-0.11;85.54;147301.75;5042246;28;20029;-65
2023/02/03 01:13:58;;;;;;;43.08;26.45;;;;;;;-0.05;85.41;147315.72;5041470;28;20091;-65
2023/02/03 01:16:24;;;;;;;41.40;26.05;;;;;;;-0.24;85.81;147269.97;5042344;28;20029;-65
2023/02/03 01:18:50;;;;;;;41.83;24.08;;;;;;;-0.49;86.31;147206.44;5024069;28;20021;-65
2023/02/03 01:21:22;;;;;;;41.00;25.45;;;;;;;-0.39;86.92;147231.81;5041993;28;20044;-64
2023/02/03 01:23:49;;;;;;;41.00;25.02;;;;;;;-0.36;86.71;147239.44;5041803;28;20025;-65
2023/02/03 01:26:17;;;;;;;40.63;26.45;;;;;;;-0.27;86.55;147262.34;5041966;28;20037;-64
2023/02/03 01:28:43;;;;;;;42.30;26.33;;;;;;;-0.07;85.88;147311.91;5041818;28;20275;-65
2023/02/03 01:31:15;;;;;;;42.60;25.48;;;;;;;-0.39;86.77;147231.81;5041812;28;20037;-66
2023/02/03 01:33:45;;;;;;;43.80;25.60;;;;;;;-0.15;86.92;147291.56;5041923;28;20087;-65
2023/02/03 01:36:11;;;;;;;42.67;25.83;;;;;;;-0.16;86.99;147287.75;5022670;28;20044;-66
2023/02/03 01:38:37;;;;;;;42.70;27.15;;;;;;;-0.28;86.98;147259.78;5037485;28;20318;-65
2023/02/03 01:41:06;;;;;;;49.28;28.00;;;;;;;-0.32;86.43;147248.38;5052709;28;20029;-65
2023/02/03 01:43:37;;;;;;;43.75;26.80;;;;;;;-0.28;87.42;147259.78;5055114;28;20068;-64
2023/02/03 01:46:17;;;;;;;47.53;27.20;;;;;;;-0.49;87.57;147206.44;5041699;28;20041;-65
2023/02/03 01:48:43;;;;;;;47.35;28.10;;;;;;;-0.36;87.49;147239.44;5042050;28;20214;-65
2023/02/03 01:51:09;;;;;;;49.20;27.88;;;;;;;-0.39;87.21;147233.09;5041179;28;20053;-65
2023/02/03 01:53:36;;;;;;;49.38;27.05;;;;;;;-0.39;87.76;147231.81;5023961;28;20033;-65
2023/02/03 01:56:03;;;;;;;48.90;28.35;;;;;;;-0.26;87.35;147264.84;5023952;28;20032;-65
2023/02/03 01:58:33;;;;;;;48.15;27.90;;;;;;;-0.36;87.29;147240.75;5041456;28;20486;-65
2023/02/03 02:00:59;;;;;;;49.05;27.75;;;;;;;-0.33;88.46;147245.81;5041567;28;20028;-65
2023/02/03 02:03:37;;;;;;;51.30;28.90;;;;;;;-0.28;87.49;147258.53;5041533;28;20097;-64
2023/02/03 02:06:11;;;;;;;45.38;27.70;;;;;;;-0.14;87.26;147292.81;5041360;28;20100;-66
2023/02/03 02:08:39;;;;;;;50.15;28.70;;;;;;;-0.07;87.59;147311.91;5023513;28;20075;-65
2023/02/03 02:11:06;;;;;;;48.88;28.38;;;;;;;-0.23;86.82;147272.53;5041646;28;20029;-66
2023/02/03 02:13:35;;;;;;;49.17;28.75;;;;;;;-0.27;87.87;147262.34;5041254;28;20067;-66
2023/02/03 02:16:06;;;;;;;46.63;27.63;;;;;;;-0.36;87.99;147239.44;5044894;28;20083;-64
2023/02/03 02:19:03;;;;;;;43.97;26.58;;;;;;;-0.20;87.62;147280.13;5044741;28;20353;-63
2023/02/03 02:21:45;;;;;;;49.88;28.27;;;;;;;-0.26;87.52;147264.84;5025209;28;20061;-63
2023/02/03 02:24:29;;;;;;;50.60;27.88;;;;;;;-0.15;87.45;147290.31;5045127;28;20029;-66
2023/02/03 02:27:33;;;;;;;51.53;30.13;;;;;;;-0.05;87.70;147315.72;5044583;28;20092;-64
2023/02/03 02:30:20;;;;;;;47.50;27.58;;;;;;;0.15;87.14;147365.31;5051106;28;20045;-64
2023/02/03 02:32:51;;;;;;;50.20;28.77;;;;;;;-0.01;87.10;147325.91;5044993;28;20029;-64
2023/02/03 02:35:33;;;;;;;50.30;29.50;;;;;;;-0.31;88.28;147252.19;5057241;28;20052;-65
2023/02/03 02:38:12;;;;;;;52.10;28.70;;;;;;;-0.29;87.91;147257.25;5026188;28;20025;-64
2023/02/03 02:40:56;;;;;;;58.15;30.42;;;;;;;-0.10;88.47;147304.31;5038576;28;20025;-64
2023/02/03 02:43:33;;;;;;;50.88;28.30;;;;;;;-0.31;88.35;147250.88;5064911;28;20032;-64
2023/02/03 02:46:09;;;;;;;50.65;29.77;;;;;;;-0.07;87.64;147310.63;5063151;28;20029;-64
2023/02/03 02:48:51;;;;;;;49.75;28.83;;;;;;;-0.17;87.27;147286.50;5043890;28;20296;-64
2023/02/03 02:51:17;;;;;;;48.47;27.33;;;;;;;-0.11;87.66;147301.75;5043905;28;20044;-64
2023/02/03 02:53:48;;;;;;;48.47;28.90;;;;;;;-0.10;87.85;147303.00;5059817;28;20029;-65
2023/02/03 02:56:16;;;;;;;52.78;29.10;;;;;;;-0.12;88.00;147297.94;5053004;28;20025;-64
2023/02/03 02:58:46;;;;;;;51.20;28.15;;;;;;;-0.09;87.44;147305.56;5044642;28;20049;-64
2023/02/03 03:01:12;;;;;;;50.78;30.58;;;;;;;0.10;87.27;147352.56;5044305;28;20029;-64
2023/02/03 03:03:41;;;;;;;52.05;29.88;;;;;;;-0.14;87.73;147294.13;5044334;28;20029;-64
2023/02/03 03:06:27;;;;;;;49.67;29.30;;;;;;;-0.08;87.93;147309.38;5044357;28;20407;-63
2023/02/03 03:09:04;;;;;;;48.05;29.17;;;;;;;-0.23;89.09;147272.53;5044404;28;20458;-65
2023/02/03 03:11:36;;;;;;;50.95;28.65;;;;;;;-0.18;88.88;147285.19;5044008;28;20025;-65
2023/02/03 03:14:02;;;;;;;;;;;;;;;-0.29;89.14;147257.25;5054574;28;20033;-65
2023/02/03 03:16:33;;;;;;;49.78;27.58;;;;;;;-0.45;89.60;147217.84;5058779;28;19932;-65
2023/02/03 03:19:08;;;;;;;50.75;28.48;;;;;;;-0.29;89.19;147257.25;5044980;28;20518;-65
2023/02/03 03:21:43;;;;;;;50.80;29.25;;;;;;;-0.21;88.96;147277.59;5063718;28;20270;-65
2023/02/03 03:24:14;;;;;;;51.13;29.25;;;;;;;-0.28;88.49;147258.53;5063905;28;20031;-65
2023/02/03 03:27:04;;;;;;;49.53;29.27;;;;;;;-0.14;89.02;147292.81;5051880;28;20256;-65
2023/02/03 03:29:40;;;;;;;54.35;30.25;;;;;;;-0.19;89.25;147281.41;5055906;28;20037;-65
2023/02/03 03:32:06;;;;;;;57.13;29.88;;;;;;;-0.03;88.34;147320.78;5053183;28;20024;-65
2023/02/03 03:34:32;;;;;;;53.30;29.95;;;;;;;-0.01;88.90;147325.91;5062705;28;20406;-65
2023/02/03 03:37:01;;;;;;;55.55;30.38;;;;;;;-0.06;88.47;147313.16;5062787;28;20051;-65
2023/02/03 03:39:46;;;;;;;56.55;29.52;;;;;;;0.15;88.86;147366.56;5062853;28;20278;-64
2023/02/03 03:42:29;;;;;;;50.83;28.63;;;;;;;0.22;87.98;147381.84;5063052;28;20095;-65
2023/02/03 03:45:18;;;;;;;51.80;29.80;;;;;;;0.08;88.31;147348.75;5063167;28;20025;-65
2023/02/03 03:47:56;;;;;;;52.92;30.48;;;;;;;0.11;88.09;147355.13;5047054;28;20041;-65
2023/02/03 03:50:30;;;;;;;53.85;30.45;;;;;;;-0.02;88.97;147324.59;5029499;28;20163;-65
2023/02/03 03:52:59;;;;;;;63.75;35.28;;;;;;;-0.02;89.21;147324.59;5031678;28;20301;-64
2023/02/03 03:55:28;;;;;;;49.08;27.58;;;;;;;0.26;88.22;147393.28;5043315;28;20033;-65
2023/02/03 03:58:11;;;;;;;49.80;28.38;;;;;;;0.20;87.87;147376.75;5043668;28;20039;-65
2023/02/03 04:00:39;;;;;;;55.97;30.27;;;;;;;0.27;87.98;147394.53;5057261;28;20068;-64
2023/02/03 04:03:13;;;;;;;51.50;29.92;;;;;;;0.18;87.64;147372.94;5043099;28;20029;-64
2023/02/03 04:05:40;;;;;;;54.78;28.92;;;;;;;0.16;88.23;147367.88;5057228;28;20134;-65
2023/02/03 04:08:06;;;;;;;52.70;29.42;;;;;;;0.23;88.51;147385.66;5035165;28;20038;-67
2023/02/03 04:10:39;;;;;;;52.00;30.27;;;;;;;0.21;88.38;147379.28;5047790;28;20033;-65
2023/02/03 04:13:06;;;;;;;57.28;31.20;;;;;;;0.21;88.24;147379.28;5062621;28;20052;-65
2023/02/03 04:15:32;;;;;;;58.78;33.47;;;;;;;0.29;88.45;147399.66;5062547;28;20045;-65
2023/02/03 04:18:00;;;;;;;54.90;30.52;;;;;;;0.20;88.60;147376.75;5045662;28;20033;-64
2023/02/03 04:20:27;;;;;;;53.67;30.27;;;;;;;0.24;88.78;147386.91;5055296;28;20048;-65
2023/02/03 04:22:53;;;;;;;51.80;29.52;;;;;;;0.31;88.02;147404.72;5037260;28;20025;-65
2023/02/03 04:25:19;;;;;;;49.25;29.48;;;;;;;0.40;88.18;147427.63;5043023;28;20320;-65
2023/02/03 04:27:44;;;;;;;52.22;30.05;;;;;;;0.38;88.05;147422.53;5042809;28;20053;-66
2023/02/03 04:30:11;;;;;;;46.10;27.55;;;;;;;0.49;88.02;147449.25;5042712;28;20029;-66
2023/02/03 04:32:37;;;;;;;60.38;31.23;;;;;;;0.34;88.36;147413.66;5042074;28;20395;-65
2023/02/03 04:35:04;;;;;;;49.00;27.98;;;;;;;0.33;88.45;147411.09;5042885;28;20025;-64
2023/02/03 04:37:29;;;;;;;57.83;31.25;;;;;;;0.35;88.46;147414.91;5041885;28;20060;-65
2023/02/03 04:39:55;;;;;;;50.58;29.20;;;;;;;0.48;87.86;147446.69;5042887;28;20029;-66
2023/02/03 04:42:21;;;;;;;60.17;31.85;;;;;;;0.41;88.82;147430.16;5042514;28;20029;-66
2023/02/03 04:44:47;;;;;;;57.33;30.83;;;;;;;0.46;88.96;147442.88;5042458;28;20349;-66
2023/02/03 04:47:13;;;;;;;50.72;29.55;;;;;;;0.32;88.57;147408.53;5042446;28;20045;-67
2023/02/03 04:49:39;;;;;;;53.05;29.58;;;;;;;0.36;89.15;147416.16;5042500;28;20029;-66
2023/02/03 04:52:05;;;;;;;52.67;30.20;;;;;;;0.54;88.89;147461.94;5042158;28;20092;-67
2023/02/03 04:54:31;;;;;;;58.25;31.48;;;;;;;0.50;88.29;147453.06;5041825;28;20036;-68
2023/02/03 04:56:56;;;;;;;56.20;29.52;;;;;;;0.56;88.63;147465.81;5041609;28;20022;-67
2023/02/03 04:59:22;;;;;;;52.78;29.90;;;;;;;0.65;88.55;147488.69;5053330;28;20068;-67
2023/02/03 05:01:47;;;;;;;60.17;32.13;;;;;;;0.54;88.41;147461.94;5028710;28;20025;-67
2023/02/03 05:04:13;;;;;;;54.92;29.55;;;;;;;0.57;88.45;147468.31;5042087;28;20033;-68
2023/02/03 05:06:38;;;;;;;60.42;32.47;;;;;;;0.70;88.17;147501.41;5041674;28;20028;-67
2023/02/03 05:09:04;;;;;;;57.78;31.30;;;;;;;0.54;88.65;147460.69;5041990;28;20029;-68
2023/02/03 05:11:30;;;;;;;57.70;30.00;;;;;;;0.55;88.56;147463.25;5041935;28;20048;-67
2023/02/03 05:13:56;;;;;;;56.90;29.45;;;;;;;0.72;88.79;147505.22;5048625;28;20036;-67
2023/02/03 05:16:22;;;;;;;53.72;29.83;;;;;;;0.65;88.19;147488.69;5054182;28;20092;-67
2023/02/03 05:18:47;;;;;;;54.13;29.60;;;;;;;0.65;88.30;147488.69;5041902;28;20021;-67
2023/02/03 05:21:13;;;;;;;54.17;29.90;;;;;;;0.69;87.85;147500.09;5041669;28;20021;-67
2023/02/03 05:23:39;;;;;;;50.42;28.45;;;;;;;0.78;88.00;147521.72;5020910;28;20045;-67
2023/02/03 05:26:04;;;;;;;53.70;30.60;;;;;;;0.63;88.45;147484.88;5004801;28;20451;-67
2023/02/03 05:28:30;;;;;;;51.97;29.98;;;;;;;0.78;88.23;147520.47;5026381;28;20029;-67
2023/02/03 05:31:02;;;;;;;57.53;31.80;;;;;;;0.81;88.41;147528.09;5024365;28;20017;-67
2023/02/03 05:33:28;;;;;;;59.28;30.67;;;;;;;0.74;88.61;147511.59;5021877;28;20329;-66
2023/02/03 05:35:54;;;;;;;51.35;28.48;;;;;;;0.75;88.47;147514.09;5037646;28;20314;-68
2023/02/03 05:38:20;;;;;;;56.97;31.52;;;;;;;0.80;88.41;147525.59;5041809;28;20029;-68
2023/02/03 05:43:34;;;;;;;55.85;30.25;;;;;;;0.60;89.23;147475.94;5045897;28;20032;-66
2023/02/03 05:46:00;;;;;;;61.42;31.98;;;;;;;0.71;89.05;147503.91;5061758;28;20048;-66
2023/02/03 05:48:26;;;;;;;59.13;30.95;;;;;;;0.67;89.45;147495.03;5035296;28;20113;-66
2023/02/03 05:50:52;;;;;;;54.53;30.17;;;;;;;0.66;89.26;147491.22;5045275;28;20205;-66
2023/02/03 05:53:17;;;;;;;61.40;30.08;;;;;;;0.65;89.26;147489.94;5045402;28;20067;-67
2023/02/03 05:55:43;;;;;;;55.75;30.88;;;;;;;0.53;90.22;147459.44;5045152;28;20025;-66
2023/02/03 05:58:08;;;;;;;62.72;32.55;;;;;;;0.53;89.88;147459.44;5045461;28;20025;-69
2023/02/03 06:00:34;;;;;;;63.17;31.52;;;;;;;0.74;89.64;147511.59;5045578;28;20210;-66
2023/02/03 06:03:01;;;;;;;60.08;31.58;;;;;;;0.68;89.56;147497.59;5027998;28;20052;-66
2023/02/03 06:05:27;;;;;;;61.45;32.22;;;;;;;0.73;89.63;147507.72;5045532;28;20052;-67
2023/02/03 06:07:53;;;;;;;62.25;32.28;;;;;;;0.80;89.24;147526.84;5045843;28;20053;-67
2023/02/03 06:10:19;;;;;;;64.30;32.97;;;;;;;0.94;89.09;147561.22;5045419;28;20080;-66
2023/02/03 06:12:45;;;;;;;56.78;29.67;;;;;;;0.55;89.69;147463.25;5045448;28;20033;-68
2023/02/03 06:15:10;;;;;;;58.95;32.35;;;;;;;0.58;89.70;147472.13;5045004;28;20037;-66
2023/02/03 06:17:36;;;;;;;56.15;32.22;;;;;;;0.71;90.02;147502.66;5058402;28;20048;-66
2023/02/03 06:20:12;;;;;;;63.42;33.10;;;;;;;0.76;90.17;147516.66;5056850;28;20037;-68
2023/02/03 06:22:37;;;;;;;59.78;32.35;;;;;;;0.84;89.70;147535.72;5045293;28;20115;-67
2023/02/03 06:25:04;;;;;;;62.10;33.22;;;;;;;0.85;89.56;147539.53;5045220;28;20037;-67
2023/02/03 06:27:29;;;;;;;61.63;33.33;;;;;;;0.73;90.14;147507.72;5045169;28;20048;-67
2023/02/03 06:29:55;;;;;;;56.63;31.70;;;;;;;0.84;89.63;147535.72;5045060;28;20029;-67
2023/02/03 06:32:21;;;;;;;64.75;33.13;;;;;;;1.04;89.31;147585.34;5044819;28;20022;-67
2023/02/03 06:34:46;;;;;;;64.53;33.17;;;;;;;0.95;89.31;147563.72;5044938;28;20121;-68
2023/02/03 06:37:12;;;;;;;64.88;31.88;;;;;;;1.03;89.09;147582.84;5045412;28;20025;-67
2023/02/03 06:39:37;;;;;;;65.05;31.05;;;;;;;0.68;89.47;147496.28;5045124;28;20092;-67
2023/02/03 06:42:03;;;;;;;62.33;32.80;;;;;;;0.85;89.94;147538.28;5061241;28;20029;-68
2023/02/03 06:44:29;;;;;;;65.45;34.05;;;;;;;1.04;89.54;147585.34;5053080;28;20033;-67
2023/02/03 06:46:55;;;;;;;65.75;32.25;;;;;;;0.99;89.15;147572.66;5044954;28;20026;-67
2023/02/03 06:49:20;;;;;;;61.95;31.88;;;;;;;0.61;89.97;147478.50;5044858;28;20073;-67
2023/02/03 06:51:46;;;;;;;60.05;32.13;;;;;;;0.96;89.17;147565.03;5044594;28;20076;-67
2023/02/03 06:54:13;;;;;;;58.35;30.75;;;;;;;0.97;89.12;147568.84;5044697;28;20094;-68
2023/02/03 06:56:38;;;;;;;62.42;31.88;;;;;;;1.02;89.88;147580.28;5044295;28;20041;-69
2023/02/03 06:59:05;;;;;;;62.47;31.48;;;;;;;1.17;88.80;147617.22;5044387;28;20032;-67
2023/02/03 07:01:31;;;;;;;55.70;30.67;;;;;;;1.22;88.37;147629.91;5043284;28;20045;-67
2023/02/03 07:03:57;;;;;;;60.50;30.98;;;;;;;1.15;88.64;147612.09;5044064;28;20194;-67
2023/02/03 07:06:29;;;;;;;55.72;30.08;;;;;;;1.23;88.44;147632.47;5044085;28;20048;-66
2023/02/03 07:08:56;;;;;;;59.88;32.22;;;;;;;1.23;88.26;147632.47;5044517;28;20046;-66
2023/02/03 07:11:22;;;;;;;60.70;30.38;;;;;;;1.35;87.93;147661.72;5044412;28;20356;-66
2023/02/03 07:13:47;;;;;;;61.92;32.60;;;;;;;1.32;88.24;147654.09;5044184;28;20060;-67
2023/02/03 07:16:13;;;;;;;59.88;32.17;;;;;;;1.20;88.41;147624.84;5044422;28;20029;-66
2023/02/03 07:18:38;;;;;;;63.30;32.17;;;;;;;1.19;88.37;147623.53;5044186;28;20037;-66
2023/02/03 07:21:05;;;;;;;58.78;32.60;;;;;;;1.16;88.84;147615.91;5043552;28;20029;-69
2023/02/03 07:23:31;;;;;;;66.03;33.38;;;;;;;1.10;88.83;147600.66;5043984;28;20033;-66
2023/02/03 07:26:03;;;;;;;67.55;33.67;;;;;;;0.99;89.02;147572.66;5044056;28;20096;-67
2023/02/03 07:28:29;;;;;;;;;;;;;;;0.98;89.42;147571.41;5044469;28;20056;-67
2023/02/03 07:30:54;;;;;;;64.75;33.80;;;;;;;1.03;89.21;147584.09;5044384;28;19912;-67
2023/02/03 07:33:20;;;;;;;61.28;32.10;;;;;;;1.14;89.00;147609.53;5043875;28;20036;-67
2023/02/03 07:35:56;;;;;;;69.45;33.47;;;;;;;1.10;89.31;147600.66;5026139;28;20048;-66
2023/02/03 07:38:24;;;;;;;62.25;32.35;;;;;;;1.20;88.54;147626.09;5043681;28;20025;-67
2023/02/03 07:40:49;;;;;;;62.50;32.28;;;;;;;1.18;88.86;147621.03;5049527;28;20025;-67
2023/02/03 07:43:15;;;;;;;63.53;32.28;;;;;;;0.95;89.94;147563.72;5062861;28;20044;-68
2023/02/03 07:45:41;;;;;;;62.28;32.28;;;;;;;1.02;89.91;147580.28;5043467;28;20093;-67
2023/02/03 07:48:07;;;;;;;63.17;32.20;;;;;;;1.06;90.26;147590.47;5042626;28;20072;-66
2023/02/03 07:50:33;;;;;;;58.15;31.17;;;;;;;1.11;89.78;147601.91;5034762;28;20105;-68
2023/02/03 07:52:59;;;;;;;59.40;32.05;;;;;;;1.10;89.46;147599.34;5043809;28;20060;-67
2023/02/03 07:55:25;;;;;;;60.90;31.10;;;;;;;1.26;89.10;147640.09;5025923;28;20052;-67
2023/02/03 07:57:55;;;;;;;64.35;32.75;;;;;;;1.12;89.09;147604.47;5026014;28;20029;-68
2023/02/03 08:00:22;;;;;;;59.67;31.42;;;;;;;1.07;90.12;147593.03;5043160;28;20029;-67
2023/02/03 08:02:47;;;;;;;63.72;33.38;;;;;;;1.00;89.91;147576.47;5009301;28;20045;-67
2023/02/03 08:05:13;;;;;;;63.85;31.83;;;;;;;0.88;90.21;147545.91;5043477;28;20175;-66
2023/02/03 08:07:40;;;;;;;61.30;32.08;;;;;;;1.15;90.10;147612.09;5043006;28;20071;-66
2023/02/03 08:10:06;;;;;;;60.53;30.88;;;;;;;0.98;89.68;147570.09;5043012;28;20053;-65
2023/02/03 08:12:32;;;;;;;53.67;30.67;;;;;;;1.29;89.24;147647.72;5041944;28;20025;-66
2023/02/03 08:14:58;;;;;;;61.60;31.13;;;;;;;1.23;88.96;147632.47;5043451;28;20255;-66
2023/02/03 08:17:24;;;;;;;63.00;30.90;;;;;;;1.19;88.80;147623.53;5043076;28;20040;-66
2023/02/03 08:19:49;;;;;;;62.42;31.52;;;;;;;1.17;89.09;147617.22;5025407;28;20025;-67
2023/02/03 08:22:15;;;;;;;61.08;30.50;;;;;;;1.06;89.51;147590.47;5042973;28;20032;-67
2023/02/03 08:24:47;;;;;;;58.47;30.35;;;;;;;1.03;89.69;147582.84;5042804;28;20025;-67
2023/02/03 08:27:19;;;;;;;57.63;28.50;;;;;;;1.16;89.08;147615.91;5042929;28;20048;-66
2023/02/03 08:29:46;;;;;;;57.25;29.05;;;;;;;1.30;88.86;147649.03;5042718;28;20026;-66
2023/02/03 08:32:15;;;;;;;55.65;29.38;;;;;;;1.40;88.63;147674.47;5042971;28;20025;-67
2023/02/03 08:34:40;;;;;;;49.38;28.13;;;;;;;1.61;88.36;147725.38;5042379;28;20052;-67
2023/02/03 08:37:06;;;;;;;50.15;28.30;;;;;;;1.53;87.69;147707.53;5042750;28;20371;-67
2023/02/03 08:39:33;;;;;;;50.53;26.98;;;;;;;1.66;87.43;147738.13;5019604;28;20030;-67
2023/02/03 08:41:59;;;;;;;48.95;27.13;;;;;;;1.75;87.27;147761.00;5052208;28;20025;-67
2023/02/03 08:44:25;;;;;;;50.90;26.58;;;;;;;1.58;87.67;147717.72;5044980;28;20100;-66
2023/02/03 08:46:52;;;;;;;48.33;28.15;;;;;;;1.60;87.35;147724.09;5049564;28;20391;-66
2023/02/03 08:49:18;;;;;;;48.17;26.40;;;;;;;1.46;87.28;147688.47;5042477;28;20044;-67
2023/02/03 08:51:47;;;;;;;44.17;26.88;;;;;;;1.50;87.28;147699.91;5042344;28;20178;-67
2023/02/03 08:54:13;;;;;;;44.17;26.67;;;;;;;1.62;87.09;147729.19;5058344;28;20041;-67
2023/02/03 08:56:39;;;;;;;45.30;26.73;;;;;;;1.77;86.78;147764.81;5047422;28;20081;-67
2023/02/03 08:59:05;;;;;;;46.20;25.52;;;;;;;1.78;86.60;147768.69;5041977;28;20025;-67
2023/02/03 09:01:30;;;;;;;41.40;26.65;;;;;;;1.89;86.62;147796.66;5042049;28;20041;-67
2023/02/03 09:03:56;;;;;;;46.53;25.92;;;;;;;1.92;86.22;147801.78;5041612;28;20049;-67
2023/02/03 09:06:22;;;;;;;44.17;25.23;;;;;;;1.89;86.05;147795.41;5056821;28;20060;-67
2023/02/03 09:08:47;;;;;;;43.65;25.10;;;;;;;2.05;86.22;147834.88;5042215;28;20047;-66
2023/02/03 09:11:15;;;;;;;46.88;26.85;;;;;;;1.83;85.85;147781.41;5041755;28;20021;-68
2023/02/03 09:13:44;;;;;;;48.15;25.98;;;;;;;1.99;86.18;147819.59;5042133;28;20029;-67
2023/02/03 09:16:17;;;;;;;49.78;26.77;;;;;;;1.88;86.10;147794.16;5042388;28;20025;-67
2023/02/03 09:18:45;;;;;;;44.53;26.80;;;;;;;1.97;85.95;147815.78;5041982;28;20048;-67
2023/02/03 09:21:12;;;;;;;48.55;26.65;;;;;;;2.02;85.88;147827.22;5024410;28;20163;-65
2023/02/03 09:23:39;;;;;;;48.60;26.75;;;;;;;1.90;86.48;147797.97;5041133;28;20100;-67
2023/02/03 09:26:10;;;;;;;48.05;27.60;;;;;;;2.02;86.55;147827.22;5041844;28;20021;-67
2023/02/03 09:28:36;;;;;;;48.22;27.77;;;;;;;2.04;86.58;147832.34;5044263;28;20055;-66
2023/02/03 09:31:07;;;;;;;49.10;28.10;;;;;;;1.92;86.54;147801.78;5052897;28;20029;-67
2023/02/03 09:33:33;;;;;;;44.07;26.47;;;;;;;1.86;87.33;147789.03;5024222;28;20052;-66
2023/02/03 09:35:59;;;;;;;43.15;25.75;;;;;;;1.82;87.48;147777.56;5041734;28;20164;-66
2023/02/03 09:38:25;;;;;;;44.63;25.27;;;;;;;1.89;87.63;147795.41;5041662;28;20057;-66
2023/02/03 09:41:25;;;;;;;43.20;25.48;;;;;;;1.53;87.97;147707.53;5041462;28;20056;-67
2023/02/03 09:43:55;;;;;;;40.60;23.10;;;;;;;1.66;87.56;147738.13;5046394;28;20095;-66
2023/02/03 09:46:28;;;;;;;37.80;23.23;;;;;;;1.77;87.80;147766.13;5050661;28;20089;-66
2023/02/03 09:49:12;;;;;;;39.00;23.63;;;;;;;1.69;87.75;147745.75;5041844;28;20388;-68
2023/02/03 09:51:45;;;;;;;41.67;24.70;;;;;;;1.63;88.00;147730.47;5041490;28;20253;-66
2023/02/03 09:54:23;;;;;;;;;;;;;;;1.77;87.77;147766.13;5042354;28;20045;-67
2023/02/03 09:56:54;;;;;;;46.15;26.55;;;;;;;1.62;88.65;147727.91;5056899;28;19912;-67
2023/02/03 09:59:21;;;;;;;44.17;25.98;;;;;;;1.72;88.40;147754.69;5024066;28;20333;-67
2023/02/03 10:02:01;;;;;;;43.25;26.80;;;;;;;1.82;88.18;147777.56;5020258;28;20061;-66
2023/02/03 10:04:33;;;;;;;47.25;26.42;;;;;;;1.46;89.48;147688.47;5037981;28;20096;-67
2023/02/03 10:07:09;;;;;;;;;;;;;;;1.46;89.95;147689.72;5042170;28;20029;-67
2023/02/03 10:09:43;;;;;;;53.28;29.67;;;;;;;1.74;89.43;147758.50;5041524;28;19913;-67
2023/02/03 10:12:22;;;;;;;47.60;27.10;;;;;;;1.62;88.40;147727.91;5041332;28;20140;-67
2023/02/03 10:15:02;;;;;;;47.42;27.08;;;;;;;1.53;88.35;147707.53;5041503;28;20044;-67
2023/02/03 10:17:31;;;;;;;46.57;26.93;;;;;;;1.71;88.54;147750.81;5041331;28;20045;-66
2023/02/03 10:20:06;;;;;;;52.63;28.20;;;;;;;1.52;88.80;147703.72;5046929;28;20092;-66
2023/02/03 10:22:39;;;;;;;47.70;29.02;;;;;;;1.76;88.67;147763.56;5059233;28;20040;-66
2023/02/03 10:25:34;;;;;;;48.42;27.08;;;;;;;1.76;88.17;147763.56;5041472;28;20445;-66
2023/02/03 10:28:03;;;;;;;40.92;24.85;;;;;;;1.67;88.42;147741.94;4963999;28;20081;-66
2023/02/03 10:30:56;;;;;;;44.65;25.00;;;;;;;1.82;88.43;147778.84;5011007;28;20041;-67
2023/02/03 10:33:28;;;;;;;37.78;23.55;;;;;;;1.83;87.89;147781.41;5018285;28;20338;-67
2023/02/03 10:36:17;;;;;;;41.53;24.67;;;;;;;1.66;88.08;147738.13;5007928;28;20041;-67
2023/02/03 10:39:00;;;;;;;44.63;25.73;;;;;;;1.83;88.10;147781.41;5009062;28;20392;-66
2023/02/03 10:41:29;;;;;;;43.35;24.30;;;;;;;1.83;88.08;147780.13;5013235;28;20022;-68
2023/02/03 10:43:55;;;;;;;33.95;20.98;;;;;;;1.86;87.49;147789.03;5007998;28;20034;-69
2023/02/03 10:46:32;;;;;;;37.33;21.83;;;;;;;1.97;87.11;147815.78;5022025;28;20073;-69
2023/02/03 10:48:58;;;;;;;36.13;21.02;;;;;;;2.09;87.01;147843.81;4983984;28;20062;-67
2023/02/03 10:51:42;;;;;;;38.78;23.67;;;;;;;1.92;87.20;147801.78;4982999;28;20042;-67
2023/02/03 10:54:33;;;;;;;34.60;22.33;;;;;;;2.12;87.58;147852.69;4997900;28;20215;-66
2023/02/03 10:57:05;;;;;;;37.88;22.10;;;;;;;2.16;86.54;147862.91;4989722;28;20382;-67
2023/02/03 10:59:34;;;;;;;39.67;22.63;;;;;;;2.10;86.97;147847.63;4992336;28;20050;-69
2023/02/03 11:02:07;;;;;;;39.67;23.33;;;;;;;2.14;87.47;147857.81;4985859;28;20112;-67
2023/02/03 11:04:33;;;;;;;37.53;22.02;;;;;;;2.12;86.82;147852.69;4993206;28;20138;-68
2023/02/03 11:07:01;;;;;;;37.58;21.10;;;;;;;2.09;86.61;147845.06;5024528;28;20373;-67
2023/02/03 11:09:36;;;;;;;30.52;20.02;;;;;;;2.09;86.94;147845.06;5024376;28;20033;-67
2023/02/03 11:12:14;;;;;;;29.75;19.95;;;;;;;2.15;86.55;147860.38;5024348;28;20048;-67
2023/02/03 11:14:43;;;;;;;33.03;20.55;;;;;;;2.13;86.51;147855.25;5024112;28;20368;-69
2023/02/03 11:17:15;;;;;;;33.70;21.60;;;;;;;2.11;86.75;147848.88;5024504;28;20037;-67
2023/02/03 11:19:44;;;;;;;29.38;19.48;;;;;;;2.20;86.25;147871.84;5006750;28;20041;-67
2023/02/03 11:22:10;;;;;;;32.72;19.88;;;;;;;2.19;86.18;147870.53;4990737;28;20053;-68
2023/02/03 11:24:39;;;;;;;29.35;18.73;;;;;;;2.10;86.50;147846.38;5024207;28;20044;-67
2023/02/03 11:27:12;;;;;;;32.83;19.25;;;;;;;2.16;85.68;147862.91;5024403;28;20054;-67
2023/02/03 11:29:41;;;;;;;30.73;18.00;;;;;;;2.26;85.72;147885.84;5023971;28;20028;-69